createdAt,value
2022-12-17T00:01:34.134Z,35.50
2022-12-17T00:04:19.083Z,36.17
2022-12-17T00:07:03.944Z,36.53
2022-12-17T00:09:50.508Z,37.43
2022-12-17T00:12:35.754Z,36.17
2022-12-17T00:15:20.625Z,36.30
2022-12-17T00:18:05.449Z,34.67
2022-12-17T00:20:50.427Z,35.57
2022-12-17T00:23:35.858Z,33.93
2022-12-17T00:26:20.964Z,35.97
2022-12-17T00:29:05.905Z,37.47
2022-12-17T00:34:41.255Z,36.10
2022-12-17T00:37:26.506Z,37.60
2022-12-17T00:40:11.547Z,34.97
2022-12-17T00:42:56.615Z,35.00
2022-12-17T00:48:35.268Z,38.60
2022-12-17T00:51:20.359Z,36.73
2022-12-17T00:54:05.606Z,35.90
2022-12-17T00:56:50.482Z,37.40
2022-12-17T01:02:26.134Z,38.33
2022-12-17T01:05:11.382Z,37.47
2022-12-17T01:07:56.486Z,37.07
2022-12-17T01:10:41.263Z,37.40
2022-12-17T01:13:26.698Z,38.07
2022-12-17T01:16:11.800Z,35.73
2022-12-17T01:18:57.201Z,36.83
2022-12-17T01:21:42.166Z,36.90
2022-12-17T01:24:27.030Z,35.20
2022-12-17T01:27:11.914Z,34.57
2022-12-17T01:29:56.681Z,37.93
2022-12-17T01:32:41.804Z,36.17
2022-12-17T01:35:26.601Z,35.90
2022-12-17T01:38:11.570Z,37.20
2022-12-17T01:40:56.582Z,36.10
2022-12-17T01:43:41.467Z,37.83
2022-12-17T01:46:28.019Z,39.67
2022-12-17T01:49:12.874Z,39.60
2022-12-17T01:51:58.121Z,37.40
2022-12-17T01:54:43.031Z,36.77
2022-12-17T01:57:31.025Z,39.47
2022-12-17T02:00:15.972Z,37.73
2022-12-17T02:03:01.216Z,37.63
2022-12-17T02:05:46.565Z,37.47
2022-12-17T02:11:21.927Z,38.77
2022-12-17T02:14:11.016Z,37.60
2022-12-17T02:16:55.948Z,39.87
2022-12-17T02:22:31.710Z,37.30
2022-12-17T02:25:16.720Z,36.77
2022-12-17T02:28:01.545Z,39.93
2022-12-17T02:30:46.518Z,40.50
2022-12-17T02:33:31.579Z,40.20
2022-12-17T02:36:16.899Z,39.53
2022-12-17T02:39:05.269Z,37.83
2022-12-17T02:41:50.165Z,38.60
2022-12-17T02:47:25.989Z,37.00
2022-12-17T02:50:10.858Z,36.93
2022-12-17T02:52:55.755Z,40.07
2022-12-17T02:55:40.735Z,38.83
2022-12-17T03:01:19.242Z,37.80
2022-12-17T03:04:04.417Z,40.53
2022-12-17T03:06:49.573Z,37.33
2022-12-17T03:09:34.487Z,39.23
2022-12-17T03:15:09.827Z,39.70
2022-12-17T03:17:54.796Z,38.10
2022-12-17T03:20:39.864Z,38.83
2022-12-17T03:23:24.711Z,38.93
2022-12-17T03:26:09.657Z,39.23
2022-12-17T03:28:54.363Z,36.40
2022-12-17T03:31:39.686Z,36.90
2022-12-17T03:34:24.887Z,36.90
2022-12-17T03:37:09.799Z,38.57
2022-12-17T03:39:55.026Z,37.27
2022-12-17T03:45:30.205Z,36.83
2022-12-17T03:48:15.156Z,37.90
2022-12-17T03:51:01.972Z,39.47
2022-12-17T03:53:46.854Z,36.53
2022-12-17T03:56:35.221Z,37.73
2022-12-17T03:59:20.183Z,36.97
2022-12-17T04:02:05.559Z,36.30
2022-12-17T04:04:50.616Z,37.30
2022-12-17T04:07:35.726Z,36.40
2022-12-17T04:10:20.729Z,36.03
2022-12-17T04:13:05.957Z,35.30
2022-12-17T04:15:50.902Z,37.97
2022-12-17T04:18:36.183Z,36.73
2022-12-17T04:21:21.158Z,38.43
2022-12-17T04:24:08.134Z,37.53
2022-12-17T04:26:53.034Z,39.23
2022-12-17T04:32:35.172Z,36.53
2022-12-17T04:41:00.766Z,38.20
2022-12-17T04:43:45.987Z,39.80
2022-12-17T04:46:30.910Z,36.73
2022-12-17T04:52:06.715Z,36.40
2022-12-17T04:57:41.695Z,38.40
2022-12-17T05:03:17.892Z,35.37
2022-12-17T05:08:54.048Z,36.00
2022-12-17T05:11:38.869Z,38.57
2022-12-17T05:14:27.935Z,37.73
2022-12-17T05:17:12.791Z,36.07
2022-12-17T05:19:57.971Z,36.63
2022-12-17T05:22:42.856Z,37.93
2022-12-17T05:25:28.326Z,36.90
2022-12-17T05:28:13.124Z,36.93
2022-12-17T05:30:58.490Z,37.87
2022-12-17T05:33:43.748Z,37.07
2022-12-17T05:39:18.893Z,37.57
2022-12-17T05:42:04.054Z,34.73
2022-12-17T05:44:49.207Z,36.37
2022-12-17T05:47:34.127Z,37.53
2022-12-17T05:50:19.059Z,36.03
2022-12-17T05:53:04.090Z,40.33
2022-12-17T05:55:52.971Z,37.17
2022-12-17T05:58:37.820Z,39.60
2022-12-17T06:01:27.108Z,38.73
2022-12-17T06:04:12.430Z,36.10
2022-12-17T06:18:54.811Z,36.57
2022-12-17T06:21:39.795Z,38.63
2022-12-17T06:24:25.058Z,38.60
2022-12-17T06:27:10.082Z,37.00
2022-12-17T06:29:55.259Z,36.53
2022-12-17T06:32:41.624Z,36.60
2022-12-17T06:41:06.615Z,40.17
2022-12-17T06:43:51.577Z,38.37
2022-12-17T06:46:53.348Z,37.10
2022-12-17T06:49:38.311Z,37.17
2022-12-17T06:52:23.257Z,37.20
2022-12-17T06:55:07.954Z,37.60
2022-12-17T07:00:43.954Z,37.20
2022-12-17T07:03:29.229Z,36.07
2022-12-17T07:06:14.910Z,36.77
2022-12-17T07:08:59.766Z,36.77
2022-12-17T07:11:44.714Z,38.07
2022-12-17T07:14:29.896Z,36.37
2022-12-17T07:20:04.852Z,39.70
2022-12-17T07:22:49.802Z,36.83
2022-12-17T07:28:28.879Z,37.33
2022-12-17T07:31:13.862Z,37.17
2022-12-17T07:33:58.937Z,37.57
2022-12-17T07:36:43.859Z,38.97
2022-12-17T07:42:19.735Z,38.40
2022-12-17T07:45:04.738Z,39.33
2022-12-17T07:48:00.426Z,37.47
2022-12-17T07:50:45.749Z,39.93
2022-12-17T07:53:30.548Z,40.27
2022-12-17T07:56:18.857Z,39.90
2022-12-17T07:59:03.785Z,37.83
2022-12-17T08:04:51.075Z,39.50
2022-12-17T08:07:35.963Z,39.93
2022-12-17T08:10:25.178Z,38.27
2022-12-17T08:13:14.036Z,41.53
2022-12-17T08:18:52.877Z,38.07
2022-12-17T08:21:37.794Z,42.53
2022-12-17T08:24:26.075Z,41.43
2022-12-17T08:27:11.087Z,42.00
2022-12-17T08:32:46.767Z,43.27
2022-12-17T08:35:31.775Z,41.83
2022-12-17T08:38:16.916Z,43.53
2022-12-17T08:41:15.764Z,41.67
2022-12-17T08:44:00.698Z,42.50
2022-12-17T08:55:18.935Z,44.70
2022-12-17T08:58:03.819Z,44.27
2022-12-17T09:00:48.902Z,42.50
2022-12-17T09:03:33.854Z,45.00
2022-12-17T09:14:50.711Z,43.10
2022-12-17T09:17:35.590Z,50.67
2022-12-17T09:20:24.855Z,46.27
2022-12-17T09:23:12.762Z,46.40
2022-12-17T09:25:58.361Z,46.77
2022-12-17T09:28:43.607Z,43.33
2022-12-17T09:34:18.729Z,44.00
2022-12-17T09:37:03.623Z,43.73
2022-12-17T09:39:48.551Z,44.70
2022-12-17T09:42:33.453Z,46.33
2022-12-17T09:48:09.885Z,45.40
2022-12-17T09:50:55.017Z,42.13
2022-12-17T09:53:41.798Z,44.27
2022-12-17T09:56:26.543Z,45.60
2022-12-17T10:02:01.756Z,45.80
2022-12-17T10:04:47.243Z,42.57
2022-12-17T10:07:32.124Z,38.37
2022-12-17T10:13:07.703Z,36.90
2022-12-17T10:18:43.709Z,34.67
2022-12-17T10:21:28.717Z,28.17
2022-12-17T10:24:18.589Z,32.00
2022-12-17T10:27:04.079Z,31.33
2022-12-17T10:29:49.479Z,29.93
2022-12-17T10:32:34.817Z,31.20
2022-12-17T10:35:20.055Z,32.27
2022-12-17T10:38:05.015Z,30.53
2022-12-17T10:46:35.349Z,30.23
2022-12-17T10:49:20.466Z,32.77
2022-12-17T10:52:05.455Z,32.40
2022-12-17T10:54:50.479Z,32.70
2022-12-17T10:57:36.022Z,31.87
2022-12-17T11:00:20.925Z,34.50
2022-12-17T11:03:06.126Z,37.80
2022-12-17T11:05:53.820Z,34.97
2022-12-17T11:08:43.057Z,35.77
2022-12-17T11:11:27.995Z,36.83
2022-12-17T11:14:15.523Z,36.53
2022-12-17T11:17:00.738Z,34.27
2022-12-17T11:22:36.533Z,35.53
2022-12-17T11:25:27.706Z,38.00
2022-12-17T11:28:30.350Z,38.00
2022-12-17T11:36:55.490Z,35.43
2022-12-17T11:39:40.694Z,36.00
2022-12-17T11:42:25.923Z,39.57
2022-12-17T11:45:10.863Z,37.60
2022-12-17T11:50:46.596Z,36.20
2022-12-17T11:53:31.555Z,38.37
2022-12-17T11:56:16.518Z,36.90
2022-12-17T11:59:01.348Z,38.97
2022-12-17T12:04:36.839Z,37.27
2022-12-17T12:07:21.983Z,36.77
2022-12-17T12:10:07.090Z,36.90
2022-12-17T12:12:52.283Z,38.95
2022-12-17T12:15:40.731Z,37.55
2022-12-17T12:18:25.767Z,42.60
2022-12-17T12:21:10.769Z,36.43
2022-12-17T12:23:55.647Z,40.37
2022-12-17T12:26:40.530Z,41.63
2022-12-17T12:29:25.575Z,37.13
2022-12-17T12:35:00.460Z,38.07
2022-12-17T12:37:45.371Z,37.60
2022-12-17T12:40:30.252Z,35.03
2022-12-17T12:43:15.230Z,33.87
2022-12-17T12:46:00.354Z,35.60
2022-12-17T12:48:45.566Z,34.23
2022-12-17T12:51:33.986Z,36.23
2022-12-17T12:54:19.613Z,33.37
2022-12-17T12:57:04.577Z,33.42
2022-12-17T12:59:49.578Z,33.30
2022-12-17T13:02:34.617Z,32.27
2022-12-17T13:05:19.701Z,33.13
2022-12-17T13:07:48.004Z,32.17
2022-12-17T13:10:14.321Z,30.73
2022-12-17T13:12:40.671Z,33.65
2022-12-17T13:15:06.968Z,32.10
2022-12-17T13:17:33.297Z,32.47
2022-12-17T13:19:59.618Z,33.55
2022-12-17T13:22:25.928Z,33.70
2022-12-17T13:24:52.314Z,32.08
2022-12-17T13:27:18.785Z,30.52
2022-12-17T13:29:45.377Z,32.50
2022-12-17T13:32:11.774Z,32.45
2022-12-17T13:34:38.198Z,30.23
2022-12-17T13:37:04.522Z,28.80
2022-12-17T13:39:30.907Z,31.87
2022-12-17T13:41:57.323Z,29.43
2022-12-17T13:44:23.910Z,28.20
2022-12-17T13:46:50.212Z,27.40
2022-12-17T13:49:16.547Z,28.27
2022-12-17T13:51:42.868Z,30.07
2022-12-17T13:54:09.235Z,27.03
2022-12-17T13:56:35.583Z,26.17
2022-12-17T13:59:08.473Z,26.87
2022-12-17T14:01:35.456Z,26.83
2022-12-17T14:04:06.779Z,28.67
2022-12-17T14:06:35.975Z,27.33
2022-12-17T14:09:02.507Z,24.20
2022-12-17T14:11:49.815Z,22.90
2022-12-17T14:14:16.415Z,23.80
2022-12-17T14:16:49.013Z,23.67
2022-12-17T14:19:17.047Z,24.40
2022-12-17T14:21:43.419Z,23.92
2022-12-17T14:24:09.774Z,23.53
2022-12-17T14:26:36.086Z,25.23
2022-12-17T14:29:05.651Z,23.17
2022-12-17T14:31:31.985Z,24.23
2022-12-17T14:33:58.490Z,23.23
2022-12-17T14:36:24.814Z,21.25
2022-12-17T14:38:51.381Z,20.73
2022-12-17T14:41:36.864Z,20.23
2022-12-17T14:44:03.200Z,22.90
2022-12-17T14:46:29.724Z,21.20
2022-12-17T14:49:02.300Z,22.70
2022-12-17T14:51:28.643Z,21.00
2022-12-17T14:53:54.956Z,21.10
2022-12-17T14:56:21.604Z,20.37
2022-12-17T14:58:47.913Z,19.83
2022-12-17T15:01:14.322Z,21.40
2022-12-17T15:03:40.787Z,21.27
2022-12-17T15:06:07.208Z,20.43
2022-12-17T15:11:04.667Z,20.87
2022-12-17T15:13:30.994Z,20.53
2022-12-17T15:15:57.391Z,19.97
2022-12-17T15:18:23.893Z,20.03
2022-12-17T15:20:50.219Z,18.80
2022-12-17T15:23:16.990Z,20.90
2022-12-17T15:25:46.716Z,20.63
2022-12-17T15:28:13.417Z,19.07
2022-12-17T15:33:13.918Z,21.33
2022-12-17T15:35:40.242Z,20.90
2022-12-17T15:38:06.563Z,21.00
2022-12-17T15:40:33.099Z,21.77
2022-12-17T15:43:11.853Z,19.40
2022-12-17T15:48:09.643Z,19.17
2022-12-17T15:50:37.631Z,19.70
2022-12-17T15:53:03.961Z,19.13
2022-12-17T15:55:30.301Z,18.07
2022-12-17T16:00:28.686Z,18.03
2022-12-17T16:02:55.168Z,20.37
2022-12-17T16:07:53.699Z,20.67
2022-12-17T16:10:20.110Z,19.63
2022-12-17T16:15:19.685Z,20.43
2022-12-17T16:17:46.011Z,21.10
2022-12-17T16:20:12.330Z,25.67
2022-12-17T16:22:38.646Z,26.90
2022-12-17T16:25:05.352Z,21.00
2022-12-17T16:27:33.791Z,19.73
2022-12-17T16:30:00.222Z,23.17
2022-12-17T16:32:29.233Z,22.23
2022-12-17T16:35:01.668Z,21.60
2022-12-17T16:37:27.991Z,20.37
2022-12-17T16:39:59.682Z,20.73
2022-12-17T16:42:26.597Z,21.50
2022-12-17T16:44:52.915Z,22.20
2022-12-17T16:47:19.231Z,22.13
2022-12-17T16:49:45.551Z,22.17
2022-12-17T16:52:12.276Z,21.40
2022-12-17T16:54:38.594Z,20.87
2022-12-17T16:57:04.919Z,21.70
2022-12-17T16:59:31.244Z,22.47
2022-12-17T17:01:57.739Z,22.33
2022-12-17T17:04:25.717Z,23.00
2022-12-17T17:06:52.112Z,34.13
2022-12-17T17:09:18.710Z,23.67
2022-12-17T17:11:49.621Z,30.50
2022-12-17T17:14:17.994Z,28.80
2022-12-17T17:16:44.748Z,25.67
2022-12-17T17:19:11.081Z,23.70
2022-12-17T17:21:38.736Z,24.13
2022-12-17T17:24:05.163Z,23.07
2022-12-17T17:26:31.944Z,23.23
2022-12-17T17:28:58.358Z,24.53
2022-12-17T17:31:46.438Z,22.80
2022-12-17T17:34:11.276Z,24.10
2022-12-17T17:36:37.615Z,22.70
2022-12-17T17:39:04.071Z,23.73
2022-12-17T17:41:30.430Z,21.17
2022-12-17T17:43:56.885Z,22.83
2022-12-17T17:46:23.646Z,21.53
2022-12-17T17:48:53.970Z,21.27
2022-12-17T17:51:38.874Z,21.80
2022-12-17T17:54:14.080Z,21.50
2022-12-17T17:56:40.741Z,21.77
2022-12-17T17:59:07.070Z,21.60
2022-12-17T18:01:33.528Z,21.67
2022-12-17T18:03:59.967Z,22.90
2022-12-17T18:06:29.589Z,21.30
2022-12-17T18:08:55.980Z,20.60
2022-12-17T18:11:23.509Z,19.70
2022-12-17T18:13:56.190Z,21.27
2022-12-17T18:16:22.619Z,22.53
2022-12-17T18:18:49.071Z,21.93
2022-12-17T18:21:15.389Z,20.53
2022-12-17T18:23:41.720Z,20.63
2022-12-17T18:26:08.036Z,21.60
2022-12-17T18:28:37.859Z,23.17
2022-12-17T18:31:04.531Z,21.10
2022-12-17T18:33:34.593Z,21.77
2022-12-17T18:36:00.926Z,21.20
2022-12-17T18:38:27.248Z,21.90
2022-12-17T18:40:53.571Z,21.50
2022-12-17T18:43:26.043Z,21.37
2022-12-17T18:45:52.372Z,22.80
2022-12-17T18:48:19.391Z,22.77
2022-12-17T18:50:45.720Z,21.87
2022-12-17T18:53:12.312Z,22.13
2022-12-17T18:55:41.873Z,21.90
2022-12-17T18:58:08.254Z,23.50
2022-12-17T19:00:34.588Z,24.97
2022-12-17T19:03:01.144Z,24.33
2022-12-17T19:05:27.552Z,24.00
2022-12-17T19:07:53.922Z,26.30
2022-12-17T19:10:20.242Z,24.80
2022-12-17T19:15:18.954Z,25.23
2022-12-17T19:17:45.289Z,24.93
2022-12-17T19:20:11.618Z,23.93
2022-12-17T19:22:37.936Z,22.27
2022-12-17T19:25:04.273Z,23.87
2022-12-17T19:27:30.611Z,24.83
2022-12-17T19:29:58.580Z,23.83
2022-12-17T19:32:25.027Z,22.27
2022-12-17T19:34:51.347Z,22.37
2022-12-17T19:37:17.746Z,23.10
2022-12-17T19:39:44.126Z,22.60
2022-12-17T19:42:24.917Z,21.67
2022-12-17T19:44:51.732Z,21.83
2022-12-17T19:47:18.128Z,23.20
2022-12-17T19:49:44.445Z,23.37
2022-12-17T19:52:10.759Z,23.30
2022-12-17T19:54:37.088Z,23.93
2022-12-17T19:59:34.638Z,24.20
2022-12-17T20:02:03.822Z,23.90
2022-12-17T20:04:30.873Z,25.17
2022-12-17T20:06:57.286Z,24.83
2022-12-17T20:09:23.610Z,25.93
2022-12-17T20:11:49.931Z,25.97
2022-12-17T20:14:16.284Z,25.50
2022-12-17T20:16:42.673Z,25.57
2022-12-17T20:19:09.102Z,26.03
2022-12-17T20:21:35.414Z,25.73
2022-12-17T20:24:01.773Z,26.20
2022-12-17T20:26:29.556Z,29.00
2022-12-17T20:28:55.981Z,29.67
2022-12-17T20:31:22.362Z,29.70
2022-12-17T20:33:48.755Z,29.60
2022-12-17T20:36:15.156Z,27.67
2022-12-17T20:38:41.936Z,27.20
2022-12-17T20:41:08.616Z,28.60
2022-12-17T20:43:35.125Z,28.00
2022-12-17T20:46:01.555Z,29.97
2022-12-17T20:48:27.941Z,32.50
2022-12-17T20:50:54.593Z,29.90
2022-12-17T20:53:21.085Z,30.87
2022-12-17T20:55:47.404Z,30.77
2022-12-17T20:58:13.715Z,32.10
2022-12-17T21:00:40.449Z,32.73
2022-12-17T21:03:07.023Z,33.93
2022-12-17T21:05:33.464Z,34.07
2022-12-17T21:07:59.765Z,35.37
2022-12-17T21:10:26.141Z,33.47
2022-12-17T21:13:11.293Z,33.97
2022-12-17T21:15:37.727Z,32.67
2022-12-17T21:18:04.055Z,33.57
2022-12-17T21:20:30.536Z,31.47
2022-12-17T21:22:57.284Z,32.60
2022-12-17T21:25:23.726Z,31.90
2022-12-17T21:27:50.086Z,30.43
2022-12-17T21:30:16.547Z,33.17
2022-12-17T21:32:42.866Z,32.30
2022-12-17T21:35:10.298Z,31.23
2022-12-17T21:37:36.773Z,31.90
2022-12-17T21:40:03.205Z,31.20
2022-12-17T21:42:48.334Z,30.17
2022-12-17T21:45:14.720Z,30.17
2022-12-17T21:47:41.292Z,28.97
2022-12-17T21:50:07.637Z,30.43
2022-12-17T21:52:33.979Z,30.30
2022-12-17T21:55:00.315Z,30.00
2022-12-17T21:57:26.843Z,29.27
2022-12-17T21:59:53.158Z,29.80
2022-12-17T22:02:20.476Z,29.20
2022-12-17T22:04:47.001Z,28.33
2022-12-17T22:07:26.268Z,30.13
2022-12-17T22:10:20.366Z,27.67
2022-12-17T22:13:01.324Z,26.23
2022-12-17T22:15:34.461Z,25.00
2022-12-17T22:18:10.182Z,28.47
2022-12-17T22:20:36.518Z,26.57
2022-12-17T22:23:05.453Z,26.53
2022-12-17T22:25:31.939Z,27.47
2022-12-17T22:27:58.264Z,27.60
2022-12-17T22:30:57.168Z,28.87
2022-12-17T22:33:51.743Z,26.60
2022-12-17T22:38:58.342Z,26.40
2022-12-17T22:43:46.242Z,26.83
2022-12-17T22:44:33.847Z,26.40
2022-12-17T22:44:54.510Z,29.37
2022-12-17T22:47:21.565Z,27.10
2022-12-17T22:49:47.891Z,26.90
2022-12-17T22:52:14.515Z,28.33
2022-12-17T22:54:43.651Z,24.67
2022-12-17T22:57:34.804Z,25.53
2022-12-17T22:59:56.568Z,26.50
2022-12-17T23:02:23.554Z,27.70
2022-12-17T23:04:50.007Z,28.50
2022-12-17T23:07:16.475Z,29.03
2022-12-17T23:09:42.799Z,28.43
2022-12-17T23:12:28.053Z,28.40
2022-12-17T23:14:54.418Z,29.87
2022-12-17T23:17:20.762Z,28.77
2022-12-17T23:19:47.085Z,28.30
2022-12-17T23:22:22.137Z,29.80
2022-12-17T23:24:48.740Z,27.63
2022-12-17T23:27:15.076Z,30.17
2022-12-17T23:29:41.401Z,29.87
2022-12-17T23:32:07.775Z,29.93
2022-12-17T23:34:34.094Z,30.43
2022-12-17T23:37:00.450Z,28.07
2022-12-17T23:39:27.058Z,29.07
2022-12-17T23:41:53.582Z,31.33
2022-12-17T23:44:19.907Z,28.97
2022-12-17T23:46:46.286Z,29.50
2022-12-17T23:49:12.683Z,27.90
2022-12-17T23:51:39.031Z,29.63
2022-12-17T23:54:05.411Z,26.73
2022-12-17T23:56:31.781Z,29.10
2022-12-17T23:58:58.294Z,29.13
